createdAt,value
2023-02-07T00:01:18.457Z,2.325
2023-02-07T00:04:16.628Z,1
2023-02-07T00:07:16.809Z,4.4625
2023-02-07T00:11:19.534Z,2.85
2023-02-07T00:14:16.843Z,2.1875
2023-02-07T00:17:17.034Z,5.862500000000001
2023-02-07T00:21:18.075Z,3.7125
2023-02-07T00:24:19.621Z,1.675
2023-02-07T00:27:16.333Z,1.3875
2023-02-07T00:31:18.552Z,3.4875
2023-02-07T00:34:16.471Z,3.5250000000000004
2023-02-07T00:37:16.587Z,1.45
2023-02-07T00:41:18.844Z,1.5625
2023-02-07T00:44:16.905Z,2.3874999999999997
2023-02-07T00:47:16.970Z,2.425
2023-02-07T00:51:16.227Z,1.7875
2023-02-07T00:54:16.845Z,1.9375
2023-02-07T00:57:16.309Z,3.3
2023-02-07T01:01:16.385Z,2.575
2023-02-07T01:04:16.709Z,2.9875
2023-02-07T01:07:16.624Z,2.3375000000000004
2023-02-07T01:11:17.156Z,3.4499999999999997
2023-02-07T01:14:15.872Z,2.2874999999999996
2023-02-07T01:17:16.015Z,4.9125
2023-02-07T01:21:18.828Z,2.45
2023-02-07T01:24:17.025Z,2.4124999999999996
2023-02-07T01:27:16.766Z,2.7750000000000004
2023-02-07T01:31:16.204Z,1.7375
2023-02-07T01:34:16.178Z,4.475
2023-02-07T01:37:16.555Z,3.4750000000000005
2023-02-07T01:41:15.620Z,3.75
2023-02-07T01:45:21.944Z,2.325
2023-02-07T01:47:18.216Z,2.4
2023-02-07T01:51:16.505Z,2.6125
2023-02-07T01:54:17.787Z,2.15
2023-02-07T01:57:20.366Z,1.8624999999999998
2023-02-07T02:01:19.902Z,2.4625000000000004
2023-02-07T02:04:16.162Z,1.2625
2023-02-07T02:07:16.391Z,5.85
2023-02-07T02:11:32.062Z,1.8250000000000002
2023-02-07T02:14:33.583Z,1.9249999999999998
2023-02-07T02:17:27.334Z,2.1125
2023-02-07T02:31:38.226Z,5.9625
2023-02-07T02:34:21.902Z,1.6875
2023-02-07T02:37:28.436Z,5.425
2023-02-07T02:41:22.887Z,4.9
2023-02-07T02:44:22.204Z,2.825
2023-02-07T02:47:19.242Z,3.0125
2023-02-07T02:51:16.175Z,2.975
2023-02-07T02:54:34.020Z,1.9125
2023-02-07T02:57:34.312Z,3.6375
2023-02-07T03:01:23.929Z,1.9
2023-02-07T03:04:31.882Z,2.5875000000000004
2023-02-07T03:07:37.506Z,1.9250000000000003
2023-02-07T03:11:19.077Z,1.525
2023-02-07T03:14:25.765Z,2.4375
2023-02-07T03:17:24.697Z,2.0124999999999997
2023-02-07T03:21:24.457Z,3.875
2023-02-07T03:24:18.915Z,14.2375
2023-02-07T03:27:19.273Z,5.8375
2023-02-07T03:31:18.547Z,2.7624999999999997
2023-02-07T03:34:20.593Z,3.8249999999999997
2023-02-07T03:37:22.111Z,2.2
2023-02-07T03:41:23.198Z,3.1625
2023-02-07T03:44:20.257Z,1.7500000000000002
2023-02-07T03:47:16.797Z,4.975
2023-02-07T03:51:16.302Z,2.65
2023-02-07T03:54:17.304Z,2.0875
2023-02-07T03:57:16.912Z,1.875
2023-02-07T04:01:15.946Z,1.7875
2023-02-07T04:04:16.565Z,1.7000000000000002
2023-02-07T04:07:16.462Z,6.35
2023-02-07T04:11:15.950Z,2.5375
2023-02-07T04:14:16.358Z,1.7125
2023-02-07T04:17:16.222Z,6.449999999999999
2023-02-07T04:21:15.884Z,2.125
2023-02-07T04:31:16.007Z,3.0375
2023-02-07T04:34:16.261Z,2.6624999999999996
2023-02-07T04:37:16.471Z,2.375
2023-02-07T04:41:16.801Z,3.6
2023-02-07T04:44:16.960Z,2.0125
2023-02-07T04:47:17.023Z,4.775
2023-02-07T04:51:16.308Z,3.45
2023-02-07T04:54:16.848Z,2.8499999999999996
2023-02-07T04:57:16.651Z,3.225
2023-02-07T05:01:16.924Z,7.3375
2023-02-07T05:04:17.455Z,3.8249999999999997
2023-02-07T05:07:17.714Z,4.2875
2023-02-07T05:11:16.808Z,3.475
2023-02-07T05:14:16.883Z,2.3874999999999997
2023-02-07T05:17:16.887Z,3.725
2023-02-07T05:21:16.849Z,2.4625
2023-02-07T05:24:17.529Z,2.3625
2023-02-07T05:27:18.666Z,2.2625
2023-02-07T05:31:16.773Z,4.3
2023-02-07T05:34:17.192Z,2.125
2023-02-07T05:37:17.129Z,3.95
2023-02-07T05:41:17.619Z,2.95
2023-02-07T05:44:17.741Z,5.0375
2023-02-07T05:47:21.160Z,3.075
2023-02-07T05:51:16.826Z,3.2
2023-02-07T05:54:17.796Z,1.7875
2023-02-07T05:57:17.193Z,1.8875000000000002
2023-02-07T06:01:16.543Z,2.725
2023-02-07T06:04:16.864Z,2.0375
2023-02-07T06:07:16.913Z,7.1375
2023-02-07T06:11:16.711Z,3.9625000000000004
2023-02-07T06:14:17.286Z,1.9125
2023-02-07T06:17:17.161Z,2.2375
2023-02-07T06:21:16.328Z,3.2375
2023-02-07T06:24:16.972Z,3.1125
2023-02-07T06:27:16.727Z,1.6250000000000002
2023-02-07T06:31:17.033Z,3.2624999999999997
2023-02-07T06:34:16.859Z,2.5625
2023-02-07T06:37:16.876Z,3.3625
2023-02-07T06:41:16.133Z,2.7
2023-02-07T06:44:16.616Z,2.2625
2023-02-07T06:47:16.913Z,2.375
2023-02-07T06:51:16.745Z,1.375
2023-02-07T06:54:16.967Z,3.875
2023-02-07T06:57:16.791Z,5.9375
2023-02-07T07:01:20.528Z,2.925
2023-02-07T07:04:16.421Z,2.5625
2023-02-07T07:07:16.382Z,2.4125
2023-02-07T07:11:17.026Z,1.475
2023-02-07T07:14:17.352Z,10.575
2023-02-07T07:17:17.114Z,6.3500000000000005
2023-02-07T07:21:16.311Z,2.05
2023-02-07T07:24:16.428Z,2.5
2023-02-07T07:27:16.410Z,7.75
2023-02-07T07:31:16.728Z,6.475
2023-02-07T07:34:17.509Z,2.8125
2023-02-07T07:37:17.240Z,2.6375
2023-02-07T07:41:16.076Z,4.5625
2023-02-07T07:44:16.760Z,2.85
2023-02-07T07:47:16.461Z,3.05
2023-02-07T07:51:16.839Z,5.9
2023-02-07T07:54:17.477Z,3.0875
2023-02-07T07:57:17.135Z,3.5
2023-02-07T08:01:16.624Z,4.800000000000001
2023-02-07T08:04:17.260Z,6.8125
2023-02-07T08:07:17.114Z,5.25
2023-02-07T08:11:16.924Z,3.425
2023-02-07T08:14:17.023Z,5.9625
2023-02-07T08:17:17.152Z,3.575
2023-02-07T08:21:16.202Z,4.8
2023-02-07T08:24:16.842Z,4.8374999999999995
2023-02-07T08:27:16.335Z,8.4375
2023-02-07T08:31:16.422Z,11.350000000000001
2023-02-07T08:34:18.381Z,11.15
2023-02-07T08:37:16.533Z,10.7875
2023-02-07T08:41:16.631Z,8.6875
2023-02-07T08:44:17.019Z,5
2023-02-07T08:47:17.991Z,2.9124999999999996
2023-02-07T08:51:16.529Z,4.8
2023-02-07T08:54:16.876Z,3.9125000000000005
2023-02-07T08:57:17.346Z,4.45
2023-02-07T09:01:16.838Z,4.1875
2023-02-07T09:04:17.215Z,7.025
2023-02-07T09:07:18.559Z,3.4875
2023-02-07T09:11:16.063Z,5.5625
2023-02-07T09:14:16.436Z,4.25
2023-02-07T09:17:16.398Z,2.6500000000000004
2023-02-07T09:21:18.010Z,5
2023-02-07T09:24:16.788Z,3.6999999999999997
2023-02-07T09:27:16.599Z,4.725
2023-02-07T09:31:16.651Z,6.012499999999999
2023-02-07T09:34:17.018Z,3.9124999999999996
2023-02-07T09:37:16.889Z,2.8000000000000003
2023-02-07T09:41:25.613Z,2.55
2023-02-07T09:44:22.154Z,3.5749999999999997
2023-02-07T09:47:20.825Z,6.487500000000001
2023-02-07T09:51:18.604Z,4.35
2023-02-07T09:54:23.177Z,3.4375
2023-02-07T09:57:20.908Z,4.0125
2023-02-07T10:01:20.892Z,4.2125
2023-02-07T10:04:28.282Z,3.6125
2023-02-07T10:07:16.515Z,4.4625
2023-02-07T10:11:24.946Z,10.525
2023-02-07T10:14:33.501Z,19.6125
2023-02-07T10:17:34.627Z,14.3875
2023-02-07T10:21:29.400Z,9.95
2023-02-07T10:24:29.085Z,5.1625
2023-02-07T10:27:28.667Z,3.625
2023-02-07T10:31:18.160Z,3.9625
2023-02-07T10:34:21.100Z,3.325
2023-02-07T10:37:19.645Z,4.3875
2023-02-07T10:41:19.610Z,2.875
2023-02-07T10:44:18.576Z,2.4499999999999997
2023-02-07T10:47:17.646Z,2.825
2023-02-07T10:51:25.096Z,4.85
2023-02-07T10:54:19.663Z,4.1
2023-02-07T10:57:19.556Z,3.225
2023-02-07T11:01:18.970Z,6.1875
2023-02-07T11:04:23.271Z,3.8625
2023-02-07T11:07:17.073Z,2.8874999999999997
2023-02-07T11:11:25.779Z,3.6125
2023-02-07T11:14:18.349Z,3.9375
2023-02-07T11:17:20.534Z,3.05
2023-02-07T11:21:24.312Z,3.8125
2023-02-07T11:24:19.537Z,3.1500000000000004
2023-02-07T11:27:19.979Z,2.8625
2023-02-07T11:31:18.341Z,9.65
2023-02-07T11:34:43.853Z,4.525
2023-02-07T11:37:22.149Z,4.5875
2023-02-07T11:41:19.042Z,2.5125
2023-02-07T11:44:17.457Z,2.7249999999999996
2023-02-07T11:47:21.032Z,3.3625000000000003
2023-02-07T11:51:17.883Z,5.3875
2023-02-07T11:54:16.998Z,4.887499999999999
2023-02-07T11:57:18.169Z,3.4875
2023-02-07T12:01:21.336Z,2.925
2023-02-07T12:04:20.482Z,3.6125000000000003
2023-02-07T12:07:22.400Z,9.625
2023-02-07T12:11:21.770Z,12.4875
2023-02-07T12:14:26.570Z,4.2625
2023-02-07T12:17:25.644Z,2.3625
2023-02-07T12:21:22.438Z,7.6625000000000005
2023-02-07T12:31:26.838Z,2.8375000000000004
2023-02-07T12:34:22.189Z,2.4125
2023-02-07T12:37:25.694Z,1.8375
2023-02-07T12:41:21.630Z,3.6375
2023-02-07T12:44:25.752Z,4.125
2023-02-07T12:47:28.264Z,2.3375
2023-02-07T12:51:23.679Z,4.0875
2023-02-07T12:54:30.271Z,3.2
2023-02-07T12:57:27.118Z,3.1125
2023-02-07T13:01:23.699Z,3.5999999999999996
2023-02-07T13:05:05.728Z,2.85
2023-02-07T13:07:30.094Z,3.125
2023-02-07T13:11:26.852Z,3.15
2023-02-07T13:14:30.194Z,8.625
2023-02-07T13:17:34.141Z,5.5375
2023-02-07T13:21:22.901Z,5.6875
2023-02-07T13:24:20.651Z,4.5249999999999995
2023-02-07T13:27:20.480Z,1.6749999999999998
2023-02-07T13:31:20.928Z,3.575
2023-02-07T13:34:22.226Z,3.15
2023-02-07T13:37:19.144Z,2.7750000000000004
2023-02-07T13:41:31.340Z,4.275
2023-02-07T13:44:27.700Z,3.8875
2023-02-07T13:47:59.322Z,7.4
2023-02-07T13:51:24.388Z,4.262499999999999
2023-02-07T13:54:31.740Z,4.512499999999999
2023-02-07T14:01:20.569Z,3.2375
2023-02-07T14:04:18.810Z,9.0125
2023-02-07T14:07:23.497Z,7.0125
2023-02-07T14:11:33.546Z,20.75
2023-02-07T14:14:24.083Z,15.2125
2023-02-07T14:18:30.577Z,6.2375
2023-02-07T14:21:30.738Z,8.7375
2023-02-07T14:24:29.807Z,4.2875
2023-02-07T14:27:34.352Z,5.1125
2023-02-07T14:31:22.589Z,6.6625
2023-02-07T14:34:19.668Z,3.6125
2023-02-07T14:37:35.685Z,3.2249999999999996
2023-02-07T14:41:18.996Z,4.05
2023-02-07T14:44:23.889Z,3.825
2023-02-07T14:47:23.287Z,6.375
2023-02-07T14:51:20.828Z,7.4750000000000005
2023-02-07T14:54:25.151Z,6.625
2023-02-07T14:57:33.359Z,5.9375
2023-02-07T15:01:18.085Z,14.6375
2023-02-07T15:04:17.337Z,7.275
2023-02-07T15:07:17.212Z,9.875
2023-02-07T15:11:16.739Z,6.125
2023-02-07T15:14:23.386Z,5.6625
2023-02-07T15:17:20.118Z,7.7
2023-02-07T15:21:19.742Z,17.5375
2023-02-07T15:24:22.951Z,5.5625
2023-02-07T15:27:20.876Z,5.925000000000001
2023-02-07T15:31:17.953Z,6.925000000000001
2023-02-07T15:34:20.892Z,5.775
2023-02-07T15:37:20.794Z,9.7625
2023-02-07T15:41:16.148Z,4.475
2023-02-07T15:44:21.752Z,3.7
2023-02-07T15:47:33.274Z,3.075
2023-02-07T15:51:19.950Z,7.1
2023-02-07T15:54:17.422Z,5.65
2023-02-07T15:57:23.020Z,3.9499999999999997
2023-02-07T16:01:21.700Z,7.925
2023-02-07T16:04:16.614Z,8.2
2023-02-07T16:07:19.045Z,6.112500000000001
2023-02-07T16:11:34.523Z,9.9125
2023-02-07T16:14:20.990Z,22.475
2023-02-07T16:17:22.233Z,13.4875
2023-02-07T16:21:21.955Z,18.012500000000003
2023-02-07T16:41:23.875Z,5.6125
2023-02-07T16:44:20.251Z,6.762500000000001
2023-02-07T16:47:17.492Z,4.9875
2023-02-07T16:51:17.072Z,6.475
2023-02-07T16:54:17.652Z,5.575
2023-02-07T16:57:17.166Z,10.712499999999999
2023-02-07T17:01:18.824Z,9.5125
2023-02-07T17:04:17.368Z,9.662500000000001
2023-02-07T17:07:17.136Z,7.4875
2023-02-07T17:11:20.772Z,6.925
2023-02-07T17:14:17.283Z,6.225
2023-02-07T17:17:16.897Z,7.2
2023-02-07T17:21:16.703Z,7.824999999999999
2023-02-07T17:24:16.962Z,6.9875
2023-02-07T17:27:16.500Z,6.8375
2023-02-07T17:31:16.207Z,6.625
2023-02-07T17:34:16.326Z,10.787500000000001
2023-02-07T17:37:16.602Z,8.412500000000001
2023-02-07T17:41:17.310Z,15.712499999999999
2023-02-07T17:44:21.277Z,13.7375
2023-02-07T17:47:17.248Z,12.475
2023-02-07T17:51:17.394Z,22.875
2023-02-07T17:54:16.523Z,8.9875
2023-02-07T17:57:16.933Z,16.825000000000003
2023-02-07T18:01:19.576Z,10.2125
2023-02-07T18:04:16.880Z,8.725000000000001
2023-02-07T18:07:17.769Z,10.05
2023-02-07T18:11:16.333Z,9.524999999999999
2023-02-07T18:14:16.619Z,6.7125
2023-02-07T18:17:16.490Z,6.525
2023-02-07T18:21:17.345Z,37.475
2023-02-07T18:24:16.801Z,13.512500000000001
2023-02-07T18:27:19.100Z,7.6625
2023-02-07T18:31:24.169Z,12.1125
2023-02-07T18:34:17.527Z,10.424999999999999
2023-02-07T18:37:16.760Z,9.3125
2023-02-07T18:41:21.133Z,23.924999999999997
2023-02-07T18:44:17.449Z,23.1625
2023-02-07T18:47:18.880Z,12.125
2023-02-07T18:51:17.978Z,10.975000000000001
2023-02-07T18:54:16.829Z,14.45
2023-02-07T18:57:16.595Z,7.6875
2023-02-07T19:01:19.812Z,6.9875
2023-02-07T19:04:17.160Z,6.5875
2023-02-07T19:07:16.239Z,6.612500000000001
2023-02-07T19:11:16.501Z,10.575
2023-02-07T19:14:18.661Z,18.2625
2023-02-07T19:17:16.758Z,12.25
2023-02-07T19:21:17.755Z,12.162500000000001
2023-02-07T19:24:16.823Z,8.6125
2023-02-07T19:27:16.105Z,5.3625
2023-02-07T19:31:18.554Z,6.924999999999999
2023-02-07T19:34:16.412Z,5.737500000000001
2023-02-07T19:37:16.336Z,9.45
2023-02-07T19:41:18.267Z,9.9375
2023-02-07T19:44:17.279Z,8.337499999999999
2023-02-07T19:47:16.553Z,8.4125
2023-02-07T19:51:17.925Z,8.575
2023-02-07T19:54:16.212Z,9.1625
2023-02-07T19:57:17.274Z,9.75
2023-02-07T20:01:16.822Z,6.975
2023-02-07T20:04:16.478Z,7.1875
2023-02-07T20:07:16.420Z,11.362499999999999
2023-02-07T20:11:18.909Z,24.5875
2023-02-07T20:14:17.273Z,26.1875
2023-02-07T20:17:17.117Z,15.887500000000001
2023-02-07T20:21:18.955Z,11.899999999999999
2023-02-07T20:24:16.550Z,18.512500000000003
2023-02-07T20:27:16.516Z,19.6875
2023-02-07T20:31:20.631Z,9.75
2023-02-07T20:34:18.078Z,8.925
2023-02-07T20:37:16.819Z,13.675
2023-02-07T20:41:29.619Z,12.0125
2023-02-07T20:44:19.572Z,10.287500000000001
2023-02-07T20:47:18.501Z,10.549999999999999
2023-02-07T20:51:16.616Z,10.55
2023-02-07T20:54:22.817Z,14.175
2023-02-07T20:57:16.903Z,16.85
2023-02-07T21:01:17.752Z,14.9125
2023-02-07T21:04:16.339Z,30.5625
2023-02-07T21:07:16.202Z,23.275000000000002
2023-02-07T21:11:17.015Z,7.4375
2023-02-07T21:14:18.327Z,10.65
2023-02-07T21:17:16.468Z,4.7125
2023-02-07T21:21:18.245Z,6.5
2023-02-07T21:24:17.724Z,5.775
2023-02-07T21:27:17.124Z,4.675000000000001
2023-02-07T21:31:19.008Z,5.65
2023-02-07T21:34:21.160Z,6.6125
2023-02-07T21:37:16.939Z,6.4125
2023-02-07T21:41:18.902Z,10.825
2023-02-07T21:44:16.643Z,7.575
2023-02-07T21:47:16.475Z,8.325
2023-02-07T21:51:18.825Z,11.2125
2023-02-07T21:54:17.047Z,10.537500000000001
2023-02-07T21:57:16.715Z,10.9875
2023-02-07T22:01:18.648Z,7.7125
2023-02-07T22:04:16.879Z,8.625
2023-02-07T22:07:16.491Z,5.525
2023-02-07T22:11:17.514Z,6.5625
2023-02-07T22:14:17.080Z,7.3625
2023-02-07T22:17:16.283Z,6.6875
2023-02-07T22:21:19.536Z,5.75
2023-02-07T22:24:18.485Z,6.5375
2023-02-07T22:27:16.682Z,5.3625
2023-02-07T22:31:21.255Z,8.575
2023-02-07T22:34:16.439Z,5.800000000000001
2023-02-07T22:37:16.413Z,8.5
2023-02-07T22:41:17.422Z,9
2023-02-07T22:44:16.229Z,13.6875
2023-02-07T22:47:16.256Z,9.4875
2023-02-07T22:51:19.754Z,18.900000000000002
2023-02-07T22:54:17.941Z,7.812500000000001
2023-02-07T22:57:16.646Z,21.575000000000003
2023-02-07T23:01:19.847Z,10.4375
2023-02-07T23:04:17.752Z,9.4
2023-02-07T23:07:17.131Z,14.162499999999998
2023-02-07T23:11:17.998Z,8.425
2023-02-07T23:14:16.531Z,5.1125
2023-02-07T23:17:16.084Z,7.1875
2023-02-07T23:21:18.703Z,9.825
2023-02-07T23:24:16.421Z,10.0125
2023-02-07T23:27:16.417Z,7.0375
2023-02-07T23:31:17.718Z,7.487500000000001
2023-02-07T23:34:16.288Z,6.2875000000000005
2023-02-07T23:37:16.430Z,5.512499999999999
2023-02-07T23:41:16.449Z,5.987500000000001
2023-02-07T23:44:16.396Z,12.125
2023-02-07T23:47:16.287Z,7.0249999999999995
2023-02-07T23:51:16.013Z,4.800000000000001
2023-02-07T23:54:16.549Z,6.15
2023-02-07T23:57:16.427Z,5.475
